Terminal Aerodrome Forecast
Issued by NWS

Home | Current Version | Previous Version | Text Only | Print | Product List | Glossary On
Versions: 1 2 3 4 5 6 7 8 9 10 11 12 13 14 15 16 17 18 19 20 21 22 23 24 25 26 27 28 29 30 31 32 33 34 35 36 37 38 39 40 41 42 43 44 45 46 47 48 49 50
000
FTUS43 KDTX 272320
TAFYIP
TAF
KYIP 272320Z 2800/2824 27008KT P6SM SCT025 OVC035
     FM280200 01005KT P6SM BKN015 OVC030
     FM280700 03006KT 3SM BR OVC008
     FM281500 01010KT P6SM OVC018
     FM281800 01010KT P6SM BKN022=

USA.gov is the U.S. government's official web portal to all federal, state and local government web resources and services.